sensor_id;sensor_type;location;lat;lon;timestamp;P1;durP1;ratioP1;P2;durP2;ratioP2
14933;SDS011;7560;51.364;12.384;2023-02-27T00:04:44;3.85;;;1.67;;
14933;SDS011;7560;51.364;12.384;2023-02-27T00:09:46;2.80;;;1.67;;
14933;SDS011;7560;51.364;12.384;2023-02-27T00:14:47;4.80;;;2.00;;
14933;SDS011;7560;51.364;12.384;2023-02-27T00:19:51;2.20;;;1.67;;
14933;SDS011;7560;51.364;12.384;2023-02-27T00:24:53;7.35;;;3.70;;
14933;SDS011;7560;51.364;12.384;2023-02-27T00:29:55;3.67;;;1.67;;
14933;SDS011;7560;51.364;12.384;2023-02-27T00:34:57;2.70;;;1.58;;
14933;SDS011;7560;51.364;12.384;2023-02-27T00:39:59;1.85;;;1.67;;
14933;SDS011;7560;51.364;12.384;2023-02-27T00:45:01;2.03;;;1.50;;
14933;SDS011;7560;51.364;12.384;2023-02-27T00:50:04;4.72;;;1.95;;
14933;SDS011;7560;51.364;12.384;2023-02-27T00:55:07;2.55;;;1.70;;
14933;SDS011;7560;51.364;12.384;2023-02-27T01:00:09;3.13;;;1.70;;
14933;SDS011;7560;51.364;12.384;2023-02-27T01:05:12;1.90;;;1.40;;
14933;SDS011;7560;51.364;12.384;2023-02-27T01:10:15;1.30;;;1.15;;
14933;SDS011;7560;51.364;12.384;2023-02-27T01:15:17;1.50;;;1.30;;
14933;SDS011;7560;51.364;12.384;2023-02-27T01:20:19;3.08;;;1.73;;
14933;SDS011;7560;51.364;12.384;2023-02-27T01:25:21;2.08;;;1.80;;
14933;SDS011;7560;51.364;12.384;2023-02-27T01:30:23;3.17;;;1.92;;
14933;SDS011;7560;51.364;12.384;2023-02-27T01:35:25;2.90;;;1.65;;
14933;SDS011;7560;51.364;12.384;2023-02-27T01:40:27;5.22;;;1.88;;
14933;SDS011;7560;51.364;12.384;2023-02-27T01:45:36;2.83;;;1.65;;
14933;SDS011;7560;51.364;12.384;2023-02-27T01:50:42;3.78;;;1.58;;
14933;SDS011;7560;51.364;12.384;2023-02-27T01:55:49;2.50;;;2.00;;
14933;SDS011;7560;51.364;12.384;2023-02-27T02:00:53;3.70;;;1.90;;
14933;SDS011;7560;51.364;12.384;2023-02-27T02:05:56;2.83;;;2.08;;
14933;SDS011;7560;51.364;12.384;2023-02-27T02:11:00;3.97;;;1.80;;
14933;SDS011;7560;51.364;12.384;2023-02-27T02:16:24;3.28;;;1.70;;
14933;SDS011;7560;51.364;12.384;2023-02-27T02:27:30;4.47;;;1.60;;
14933;SDS011;7560;51.364;12.384;2023-02-27T02:43:44;2.28;;;1.40;;
14933;SDS011;7560;51.364;12.384;2023-02-27T02:48:56;3.10;;;1.70;;
14933;SDS011;7560;51.364;12.384;2023-02-27T02:54:13;2.17;;;1.70;;
14933;SDS011;7560;51.364;12.384;2023-02-27T03:05:05;2.72;;;1.95;;
14933;SDS011;7560;51.364;12.384;2023-02-27T03:10:20;2.22;;;1.67;;
14933;SDS011;7560;51.364;12.384;2023-02-27T03:15:33;2.95;;;1.88;;
14933;SDS011;7560;51.364;12.384;2023-02-27T03:20:40;3.60;;;2.00;;
14933;SDS011;7560;51.364;12.384;2023-02-27T03:25:45;3.55;;;1.60;;
14933;SDS011;7560;51.364;12.384;2023-02-27T03:30:52;4.28;;;1.90;;
14933;SDS011;7560;51.364;12.384;2023-02-27T03:36:06;4.35;;;1.88;;
14933;SDS011;7560;51.364;12.384;2023-02-27T03:41:31;3.42;;;1.83;;
14933;SDS011;7560;51.364;12.384;2023-02-27T03:46:45;5.47;;;2.60;;
14933;SDS011;7560;51.364;12.384;2023-02-27T03:51:47;4.07;;;2.28;;
14933;SDS011;7560;51.364;12.384;2023-02-27T03:56:50;2.88;;;2.13;;
14933;SDS011;7560;51.364;12.384;2023-02-27T04:01:59;3.05;;;1.70;;
14933;SDS011;7560;51.364;12.384;2023-02-27T04:18:12;3.08;;;1.95;;
14933;SDS011;7560;51.364;12.384;2023-02-27T04:28:53;3.08;;;1.98;;
14933;SDS011;7560;51.364;12.384;2023-02-27T04:44:27;2.40;;;1.85;;
14933;SDS011;7560;51.364;12.384;2023-02-27T04:49:53;3.85;;;1.92;;
14933;SDS011;7560;51.364;12.384;2023-02-27T04:55:00;3.42;;;2.17;;
14933;SDS011;7560;51.364;12.384;2023-02-27T05:00:05;2.88;;;2.03;;
14933;SDS011;7560;51.364;12.384;2023-02-27T05:05:12;2.70;;;1.42;;
14933;SDS011;7560;51.364;12.384;2023-02-27T05:15:42;2.58;;;1.90;;
14933;SDS011;7560;51.364;12.384;2023-02-27T05:21:25;2.80;;;1.80;;
14933;SDS011;7560;51.364;12.384;2023-02-27T05:31:54;3.65;;;1.90;;
14933;SDS011;7560;51.364;12.384;2023-02-27T05:37:15;2.75;;;1.65;;
14933;SDS011;7560;51.364;12.384;2023-02-27T05:42:26;4.85;;;1.90;;
14933;SDS011;7560;51.364;12.384;2023-02-27T05:47:35;2.60;;;2.05;;
14933;SDS011;7560;51.364;12.384;2023-02-27T05:52:40;3.95;;;1.80;;
14933;SDS011;7560;51.364;12.384;2023-02-27T05:57:47;7.95;;;4.88;;
14933;SDS011;7560;51.364;12.384;2023-02-27T06:02:54;5.22;;;3.25;;
14933;SDS011;7560;51.364;12.384;2023-02-27T06:07:56;6.55;;;3.60;;
14933;SDS011;7560;51.364;12.384;2023-02-27T06:12:58;8.50;;;3.55;;
14933;SDS011;7560;51.364;12.384;2023-02-27T06:18:02;4.57;;;2.40;;
14933;SDS011;7560;51.364;12.384;2023-02-27T06:23:05;3.97;;;2.33;;
14933;SDS011;7560;51.364;12.384;2023-02-27T06:28:07;3.42;;;2.22;;
14933;SDS011;7560;51.364;12.384;2023-02-27T06:33:10;6.93;;;2.67;;
14933;SDS011;7560;51.364;12.384;2023-02-27T06:38:12;4.25;;;3.00;;
14933;SDS011;7560;51.364;12.384;2023-02-27T06:43:14;5.28;;;2.80;;
14933;SDS011;7560;51.364;12.384;2023-02-27T06:48:16;3.08;;;2.40;;
14933;SDS011;7560;51.364;12.384;2023-02-27T06:53:18;8.10;;;3.50;;
14933;SDS011;7560;51.364;12.384;2023-02-27T06:58:20;4.65;;;2.85;;
14933;SDS011;7560;51.364;12.384;2023-02-27T07:03:25;4.43;;;2.85;;
14933;SDS011;7560;51.364;12.384;2023-02-27T07:08:27;4.45;;;2.05;;
14933;SDS011;7560;51.364;12.384;2023-02-27T07:13:29;5.90;;;3.28;;
14933;SDS011;7560;51.364;12.384;2023-02-27T07:18:31;4.15;;;2.83;;
14933;SDS011;7560;51.364;12.384;2023-02-27T07:23:33;2.85;;;2.13;;
14933;SDS011;7560;51.364;12.384;2023-02-27T07:28:35;4.50;;;2.47;;
14933;SDS011;7560;51.364;12.384;2023-02-27T07:33:37;4.28;;;2.53;;
14933;SDS011;7560;51.364;12.384;2023-02-27T07:38:39;4.97;;;2.53;;
14933;SDS011;7560;51.364;12.384;2023-02-27T07:43:41;6.68;;;2.15;;
14933;SDS011;7560;51.364;12.384;2023-02-27T07:48:42;4.75;;;2.20;;
14933;SDS011;7560;51.364;12.384;2023-02-27T07:53:44;4.15;;;2.13;;
14933;SDS011;7560;51.364;12.384;2023-02-27T07:58:46;4.43;;;2.53;;
14933;SDS011;7560;51.364;12.384;2023-02-27T08:03:48;6.93;;;3.00;;
14933;SDS011;7560;51.364;12.384;2023-02-27T08:08:50;5.60;;;4.55;;
14933;SDS011;7560;51.364;12.384;2023-02-27T08:13:52;7.70;;;4.22;;
14933;SDS011;7560;51.364;12.384;2023-02-27T08:19:02;8.52;;;5.15;;
14933;SDS011;7560;51.364;12.384;2023-02-27T08:24:05;5.03;;;3.20;;
14933;SDS011;7560;51.364;12.384;2023-02-27T08:29:07;4.60;;;2.90;;
14933;SDS011;7560;51.364;12.384;2023-02-27T08:34:09;7.68;;;5.07;;
14933;SDS011;7560;51.364;12.384;2023-02-27T08:39:11;5.63;;;2.70;;
14933;SDS011;7560;51.364;12.384;2023-02-27T08:44:13;4.28;;;2.45;;
14933;SDS011;7560;51.364;12.384;2023-02-27T08:49:15;3.30;;;2.28;;
14933;SDS011;7560;51.364;12.384;2023-02-27T08:54:17;4.55;;;2.20;;
14933;SDS011;7560;51.364;12.384;2023-02-27T08:59:20;6.45;;;2.72;;
14933;SDS011;7560;51.364;12.384;2023-02-27T09:04:22;3.88;;;2.28;;
14933;SDS011;7560;51.364;12.384;2023-02-27T09:09:24;4.53;;;2.50;;
14933;SDS011;7560;51.364;12.384;2023-02-27T09:14:26;4.18;;;2.28;;
14933;SDS011;7560;51.364;12.384;2023-02-27T09:19:28;5.68;;;2.65;;
14933;SDS011;7560;51.364;12.384;2023-02-27T09:24:29;3.72;;;2.58;;
14933;SDS011;7560;51.364;12.384;2023-02-27T09:29:31;8.30;;;2.95;;
14933;SDS011;7560;51.364;12.384;2023-02-27T09:34:34;3.65;;;2.55;;
14933;SDS011;7560;51.364;12.384;2023-02-27T09:39:36;5.97;;;4.15;;
14933;SDS011;7560;51.364;12.384;2023-02-27T09:44:39;4.90;;;2.50;;
14933;SDS011;7560;51.364;12.384;2023-02-27T09:49:56;5.38;;;2.80;;
14933;SDS011;7560;51.364;12.384;2023-02-27T09:55:01;4.22;;;2.60;;
14933;SDS011;7560;51.364;12.384;2023-02-27T10:00:06;5.32;;;3.25;;
14933;SDS011;7560;51.364;12.384;2023-02-27T10:05:39;4.93;;;3.15;;
14933;SDS011;7560;51.364;12.384;2023-02-27T10:10:47;4.20;;;3.30;;
14933;SDS011;7560;51.364;12.384;2023-02-27T10:16:00;4.65;;;2.33;;
14933;SDS011;7560;51.364;12.384;2023-02-27T10:21:07;3.92;;;3.10;;
14933;SDS011;7560;51.364;12.384;2023-02-27T10:26:27;5.32;;;2.47;;
14933;SDS011;7560;51.364;12.384;2023-02-27T10:31:31;8.27;;;3.58;;
14933;SDS011;7560;51.364;12.384;2023-02-27T10:36:35;5.00;;;2.35;;
14933;SDS011;7560;51.364;12.384;2023-02-27T10:41:36;4.10;;;1.98;;
14933;SDS011;7560;51.364;12.384;2023-02-27T10:46:40;3.63;;;2.20;;
14933;SDS011;7560;51.364;12.384;2023-02-27T10:51:42;3.63;;;1.90;;
14933;SDS011;7560;51.364;12.384;2023-02-27T10:56:49;4.90;;;2.40;;
14933;SDS011;7560;51.364;12.384;2023-02-27T11:01:55;3.25;;;2.28;;
14933;SDS011;7560;51.364;12.384;2023-02-27T11:07:03;5.28;;;2.85;;
14933;SDS011;7560;51.364;12.384;2023-02-27T11:17:27;7.15;;;2.85;;
14933;SDS011;7560;51.364;12.384;2023-02-27T11:22:34;5.57;;;2.78;;
14933;SDS011;7560;51.364;12.384;2023-02-27T11:33:17;5.13;;;2.33;;
14933;SDS011;7560;51.364;12.384;2023-02-27T11:38:22;2.42;;;1.92;;
14933;SDS011;7560;51.364;12.384;2023-02-27T11:43:31;3.08;;;1.60;;
14933;SDS011;7560;51.364;12.384;2023-02-27T11:48:38;3.28;;;2.08;;
14933;SDS011;7560;51.364;12.384;2023-02-27T11:54:44;5.00;;;2.63;;
14933;SDS011;7560;51.364;12.384;2023-02-27T12:04:51;3.03;;;2.13;;
14933;SDS011;7560;51.364;12.384;2023-02-27T12:21:10;2.92;;;1.70;;
14933;SDS011;7560;51.364;12.384;2023-02-27T12:26:18;3.55;;;1.60;;
14933;SDS011;7560;51.364;12.384;2023-02-27T12:31:37;1.95;;;1.17;;
14933;SDS011;7560;51.364;12.384;2023-02-27T12:36:45;6.68;;;2.10;;
14933;SDS011;7560;51.364;12.384;2023-02-27T12:41:58;2.33;;;1.52;;
14933;SDS011;7560;51.364;12.384;2023-02-27T12:47:13;3.15;;;1.45;;
14933;SDS011;7560;51.364;12.384;2023-02-27T12:52:20;3.28;;;1.88;;
14933;SDS011;7560;51.364;12.384;2023-02-27T13:13:46;4.30;;;1.30;;
14933;SDS011;7560;51.364;12.384;2023-02-27T13:24:21;2.20;;;1.30;;
14933;SDS011;7560;51.364;12.384;2023-02-27T13:29:35;3.90;;;1.55;;
14933;SDS011;7560;51.364;12.384;2023-02-27T13:34:52;3.05;;;1.05;;
14933;SDS011;7560;51.364;12.384;2023-02-27T13:39:59;2.15;;;0.90;;
14933;SDS011;7560;51.364;12.384;2023-02-27T13:45:02;2.03;;;1.00;;
14933;SDS011;7560;51.364;12.384;2023-02-27T14:00:33;1.80;;;1.20;;
14933;SDS011;7560;51.364;12.384;2023-02-27T14:05:39;1.42;;;0.90;;
14933;SDS011;7560;51.364;12.384;2023-02-27T14:11:19;4.28;;;2.50;;
14933;SDS011;7560;51.364;12.384;2023-02-27T14:27:21;1.85;;;1.20;;
14933;SDS011;7560;51.364;12.384;2023-02-27T14:32:31;1.40;;;1.30;;
14933;SDS011;7560;51.364;12.384;2023-02-27T14:37:35;3.20;;;1.55;;
14933;SDS011;7560;51.364;12.384;2023-02-27T14:42:57;4.90;;;1.40;;
14933;SDS011;7560;51.364;12.384;2023-02-27T14:48:11;4.95;;;1.58;;
14933;SDS011;7560;51.364;12.384;2023-02-27T14:53:25;2.95;;;2.13;;
14933;SDS011;7560;51.364;12.384;2023-02-27T14:58:28;3.05;;;1.90;;
14933;SDS011;7560;51.364;12.384;2023-02-27T15:08:40;3.25;;;2.20;;
14933;SDS011;7560;51.364;12.384;2023-02-27T15:13:45;3.05;;;2.33;;
14933;SDS011;7560;51.364;12.384;2023-02-27T15:18:53;3.72;;;2.03;;
14933;SDS011;7560;51.364;12.384;2023-02-27T15:24:00;3.65;;;2.40;;
14933;SDS011;7560;51.364;12.384;2023-02-27T15:29:05;2.72;;;2.40;;
14933;SDS011;7560;51.364;12.384;2023-02-27T15:34:10;3.97;;;2.33;;
14933;SDS011;7560;51.364;12.384;2023-02-27T15:39:16;2.72;;;2.00;;
14933;SDS011;7560;51.364;12.384;2023-02-27T15:44:38;3.85;;;2.50;;
14933;SDS011;7560;51.364;12.384;2023-02-27T15:49:42;4.18;;;2.85;;
14933;SDS011;7560;51.364;12.384;2023-02-27T15:54:51;3.05;;;2.15;;
14933;SDS011;7560;51.364;12.384;2023-02-27T15:59:54;3.47;;;2.25;;
14933;SDS011;7560;51.364;12.384;2023-02-27T16:04:58;1.75;;;1.23;;
14933;SDS011;7560;51.364;12.384;2023-02-27T16:10:02;4.45;;;1.48;;
14933;SDS011;7560;51.364;12.384;2023-02-27T16:15:21;2.60;;;1.50;;
14933;SDS011;7560;51.364;12.384;2023-02-27T16:20:36;2.30;;;1.50;;
14933;SDS011;7560;51.364;12.384;2023-02-27T16:25:39;2.95;;;1.60;;
14933;SDS011;7560;51.364;12.384;2023-02-27T16:30:41;3.38;;;1.80;;
14933;SDS011;7560;51.364;12.384;2023-02-27T16:35:43;4.00;;;1.73;;
14933;SDS011;7560;51.364;12.384;2023-02-27T16:40:45;2.47;;;1.85;;
14933;SDS011;7560;51.364;12.384;2023-02-27T16:45:48;2.58;;;1.67;;
14933;SDS011;7560;51.364;12.384;2023-02-27T16:50:52;3.03;;;1.95;;
14933;SDS011;7560;51.364;12.384;2023-02-27T16:55:54;5.13;;;2.00;;
14933;SDS011;7560;51.364;12.384;2023-02-27T17:00:56;2.47;;;1.77;;
14933;SDS011;7560;51.364;12.384;2023-02-27T17:05:58;5.07;;;1.80;;
14933;SDS011;7560;51.364;12.384;2023-02-27T17:11:00;9.13;;;2.17;;
14933;SDS011;7560;51.364;12.384;2023-02-27T17:16:02;2.72;;;1.65;;
14933;SDS011;7560;51.364;12.384;2023-02-27T17:21:04;2.53;;;1.55;;
14933;SDS011;7560;51.364;12.384;2023-02-27T17:26:06;3.00;;;2.00;;
14933;SDS011;7560;51.364;12.384;2023-02-27T17:31:08;2.42;;;1.90;;
14933;SDS011;7560;51.364;12.384;2023-02-27T17:36:11;3.70;;;1.80;;
14933;SDS011;7560;51.364;12.384;2023-02-27T17:41:14;2.38;;;1.90;;
14933;SDS011;7560;51.364;12.384;2023-02-27T17:46:19;2.95;;;2.05;;
14933;SDS011;7560;51.364;12.384;2023-02-27T17:51:23;5.65;;;2.60;;
14933;SDS011;7560;51.364;12.384;2023-02-27T17:56:28;4.07;;;3.05;;
14933;SDS011;7560;51.364;12.384;2023-02-27T18:01:31;3.63;;;2.60;;
14933;SDS011;7560;51.364;12.384;2023-02-27T18:06:33;3.97;;;2.00;;
14933;SDS011;7560;51.364;12.384;2023-02-27T18:11:35;4.30;;;2.20;;
14933;SDS011;7560;51.364;12.384;2023-02-27T18:16:40;3.70;;;1.85;;
14933;SDS011;7560;51.364;12.384;2023-02-27T18:21:42;3.88;;;2.30;;
14933;SDS011;7560;51.364;12.384;2023-02-27T18:26:47;5.50;;;2.35;;
14933;SDS011;7560;51.364;12.384;2023-02-27T18:31:49;5.53;;;2.60;;
14933;SDS011;7560;51.364;12.384;2023-02-27T18:36:53;4.20;;;3.00;;
14933;SDS011;7560;51.364;12.384;2023-02-27T18:41:58;4.93;;;2.88;;
14933;SDS011;7560;51.364;12.384;2023-02-27T18:47:00;3.50;;;2.70;;
14933;SDS011;7560;51.364;12.384;2023-02-27T18:52:02;5.35;;;3.25;;
14933;SDS011;7560;51.364;12.384;2023-02-27T18:57:04;4.85;;;2.75;;
14933;SDS011;7560;51.364;12.384;2023-02-27T19:02:13;5.15;;;2.75;;
14933;SDS011;7560;51.364;12.384;2023-02-27T19:07:16;4.22;;;2.88;;
14933;SDS011;7560;51.364;12.384;2023-02-27T19:12:19;4.72;;;2.58;;
14933;SDS011;7560;51.364;12.384;2023-02-27T19:17:21;5.80;;;3.55;;
14933;SDS011;7560;51.364;12.384;2023-02-27T19:22:25;7.45;;;4.25;;
14933;SDS011;7560;51.364;12.384;2023-02-27T19:27:29;6.85;;;3.78;;
14933;SDS011;7560;51.364;12.384;2023-02-27T19:32:34;6.60;;;3.67;;
14933;SDS011;7560;51.364;12.384;2023-02-27T19:37:37;5.30;;;3.40;;
14933;SDS011;7560;51.364;12.384;2023-02-27T19:42:40;6.97;;;3.35;;
14933;SDS011;7560;51.364;12.384;2023-02-27T19:47:44;5.18;;;3.13;;
14933;SDS011;7560;51.364;12.384;2023-02-27T19:52:47;6.97;;;4.28;;
14933;SDS011;7560;51.364;12.384;2023-02-27T19:57:49;8.88;;;5.15;;
14933;SDS011;7560;51.364;12.384;2023-02-27T20:02:51;9.68;;;5.28;;
14933;SDS011;7560;51.364;12.384;2023-02-27T20:07:53;8.38;;;5.32;;
14933;SDS011;7560;51.364;12.384;2023-02-27T20:12:55;10.95;;;5.30;;
14933;SDS011;7560;51.364;12.384;2023-02-27T20:17:57;8.45;;;5.15;;
14933;SDS011;7560;51.364;12.384;2023-02-27T20:22:58;9.20;;;5.40;;
14933;SDS011;7560;51.364;12.384;2023-02-27T20:28:00;10.68;;;5.55;;
14933;SDS011;7560;51.364;12.384;2023-02-27T20:33:02;8.23;;;4.90;;
14933;SDS011;7560;51.364;12.384;2023-02-27T20:38:04;8.52;;;4.90;;
14933;SDS011;7560;51.364;12.384;2023-02-27T20:43:07;7.97;;;4.88;;
14933;SDS011;7560;51.364;12.384;2023-02-27T20:48:09;7.80;;;4.53;;
14933;SDS011;7560;51.364;12.384;2023-02-27T20:53:10;9.35;;;5.57;;
14933;SDS011;7560;51.364;12.384;2023-02-27T20:58:13;9.18;;;4.78;;
14933;SDS011;7560;51.364;12.384;2023-02-27T21:03:17;7.70;;;4.28;;
14933;SDS011;7560;51.364;12.384;2023-02-27T21:08:19;7.95;;;4.05;;
14933;SDS011;7560;51.364;12.384;2023-02-27T21:13:21;6.32;;;3.63;;
14933;SDS011;7560;51.364;12.384;2023-02-27T21:18:24;5.60;;;3.70;;
14933;SDS011;7560;51.364;12.384;2023-02-27T21:23:26;9.32;;;4.13;;
14933;SDS011;7560;51.364;12.384;2023-02-27T21:28:29;5.65;;;3.80;;
14933;SDS011;7560;51.364;12.384;2023-02-27T21:33:31;5.00;;;3.53;;
14933;SDS011;7560;51.364;12.384;2023-02-27T21:38:33;5.50;;;3.67;;
14933;SDS011;7560;51.364;12.384;2023-02-27T21:43:35;6.55;;;3.40;;
14933;SDS011;7560;51.364;12.384;2023-02-27T21:48:37;5.47;;;3.40;;
14933;SDS011;7560;51.364;12.384;2023-02-27T21:53:40;4.88;;;2.90;;
14933;SDS011;7560;51.364;12.384;2023-02-27T21:58:42;5.25;;;3.25;;
14933;SDS011;7560;51.364;12.384;2023-02-27T22:03:45;5.22;;;3.10;;
14933;SDS011;7560;51.364;12.384;2023-02-27T22:08:55;7.40;;;4.18;;
14933;SDS011;7560;51.364;12.384;2023-02-27T22:13:59;5.47;;;3.50;;
14933;SDS011;7560;51.364;12.384;2023-02-27T22:19:05;4.10;;;2.97;;
14933;SDS011;7560;51.364;12.384;2023-02-27T22:24:08;4.88;;;3.50;;
14933;SDS011;7560;51.364;12.384;2023-02-27T22:29:10;4.28;;;3.17;;
14933;SDS011;7560;51.364;12.384;2023-02-27T22:34:13;5.07;;;3.67;;
14933;SDS011;7560;51.364;12.384;2023-02-27T22:39:20;6.47;;;3.25;;
14933;SDS011;7560;51.364;12.384;2023-02-27T22:44:21;4.55;;;3.22;;
14933;SDS011;7560;51.364;12.384;2023-02-27T22:49:23;7.65;;;3.53;;
14933;SDS011;7560;51.364;12.384;2023-02-27T22:54:25;4.25;;;3.15;;
14933;SDS011;7560;51.364;12.384;2023-02-27T22:59:27;3.85;;;3.10;;
14933;SDS011;7560;51.364;12.384;2023-02-27T23:04:29;4.85;;;3.10;;
14933;SDS011;7560;51.364;12.384;2023-02-27T23:09:31;4.47;;;2.90;;
14933;SDS011;7560;51.364;12.384;2023-02-27T23:14:32;5.53;;;3.20;;
14933;SDS011;7560;51.364;12.384;2023-02-27T23:19:34;4.22;;;2.83;;
14933;SDS011;7560;51.364;12.384;2023-02-27T23:24:37;5.20;;;2.55;;
14933;SDS011;7560;51.364;12.384;2023-02-27T23:29:40;3.45;;;2.78;;
14933;SDS011;7560;51.364;12.384;2023-02-27T23:34:41;4.97;;;2.70;;
14933;SDS011;7560;51.364;12.384;2023-02-27T23:39:50;4.75;;;2.92;;
14933;SDS011;7560;51.364;12.384;2023-02-27T23:44:51;4.80;;;3.28;;
14933;SDS011;7560;51.364;12.384;2023-02-27T23:49:53;4.28;;;2.92;;
14933;SDS011;7560;51.364;12.384;2023-02-27T23:54:55;4.43;;;2.42;;
14933;SDS011;7560;51.364;12.384;2023-02-27T23:59:57;4.38;;;3.10;;
